createdAt,value
2019-06-10T00:05:11.795Z,4.00
2019-06-10T00:07:41.053Z,3.40
2019-06-10T00:10:10.762Z,3.63
2019-06-10T00:12:41.984Z,3.73
2019-06-10T00:15:31.242Z,4.03
2019-06-10T00:18:18.762Z,2.50
2019-06-10T00:20:30.580Z,4.83
2019-06-10T00:23:00.035Z,4.80
2019-06-10T00:25:28.559Z,4.60
2019-06-10T00:28:02.997Z,5.57
2019-06-10T00:30:31.396Z,4.03
2019-06-10T00:33:03.161Z,3.27
2019-06-10T00:35:31.577Z,3.63
2019-06-10T00:38:03.876Z,3.40
2019-06-10T00:40:51.344Z,4.23
2019-06-10T00:43:34.692Z,4.93
2019-06-10T00:45:51.347Z,6.00
2019-06-10T00:48:26.056Z,3.13
2019-06-10T00:50:51.611Z,4.97
2019-06-10T00:56:31.292Z,5.20
2019-06-10T00:59:02.524Z,6.07
2019-06-10T01:01:31.696Z,5.00
2019-06-10T01:04:16.159Z,6.17
2019-06-10T01:12:04.888Z,4.60
2019-06-10T01:14:33.251Z,5.80
2019-06-10T01:17:01.447Z,3.33
2019-06-10T01:19:45.983Z,4.60
2019-06-10T01:22:01.520Z,5.07
2019-06-10T01:24:32.216Z,4.43
2019-06-10T01:27:01.223Z,5.83
2019-06-10T01:32:12.253Z,3.70
2019-06-10T01:35:01.112Z,3.17
2019-06-10T01:51:55.597Z,4.10
2019-06-10T01:54:45.274Z,3.10
2019-06-10T01:57:15.379Z,4.73
2019-06-10T01:59:44.120Z,3.43
2019-06-10T02:02:34.935Z,5.73
2019-06-10T02:05:01.955Z,5.17
2019-06-10T02:10:27.722Z,4.13
2019-06-10T02:12:58.129Z,3.80
2019-06-10T02:15:26.595Z,3.63
2019-06-10T02:17:55.021Z,4.07
2019-06-10T02:20:46.889Z,2.97
2019-06-10T02:23:26.525Z,3.73
2019-06-10T02:25:57.579Z,3.80
2019-06-10T02:28:26.182Z,4.60
2019-06-10T02:31:18.726Z,3.10
2019-06-10T02:33:44.336Z,3.27
2019-06-10T02:36:36.815Z,3.90
2019-06-10T02:39:04.663Z,5.10
2019-06-10T02:41:36.244Z,3.83
2019-06-10T02:44:04.265Z,3.93
2019-06-10T02:46:36.271Z,3.70
2019-06-10T02:51:44.324Z,4.57
2019-06-10T02:54:16.315Z,2.67
2019-06-10T02:59:37.295Z,4.33
2019-06-10T03:05:25.501Z,3.53
2019-06-10T03:07:53.093Z,2.70
2019-06-10T03:10:22.664Z,5.10
2019-06-10T03:12:49.679Z,5.07
2019-06-10T03:15:17.976Z,7.33
2019-06-10T03:17:46.325Z,6.00
2019-06-10T03:22:48.577Z,6.40
2019-06-10T03:25:16.802Z,3.23
2019-06-10T03:27:45.170Z,3.23
2019-06-10T03:36:20.149Z,6.57
2019-06-10T03:38:48.583Z,4.07
2019-06-10T03:44:12.967Z,9.10
2019-06-10T03:49:28.927Z,3.80
2019-06-10T03:51:58.777Z,6.60
2019-06-10T03:57:34.744Z,3.70
2019-06-10T04:00:10.527Z,5.07
2019-06-10T04:02:34.066Z,5.40
2019-06-10T04:07:37.853Z,5.87
2019-06-10T04:10:06.626Z,6.00
2019-06-10T04:12:49.190Z,5.13
2019-06-10T04:15:07.579Z,4.37
2019-06-10T04:17:35.852Z,4.10
2019-06-10T04:20:11.666Z,5.73
2019-06-10T04:22:34.302Z,4.33
2019-06-10T04:25:28.000Z,5.00
2019-06-10T04:27:55.235Z,6.10
2019-06-10T04:33:32.796Z,3.53
2019-06-10T04:38:36.715Z,2.90
2019-06-10T04:41:05.141Z,3.40
2019-06-10T04:46:08.165Z,8.07
2019-06-10T04:48:36.625Z,3.43
2019-06-10T04:53:52.589Z,2.97
2019-06-10T05:01:56.910Z,4.27
2019-06-10T05:04:28.717Z,4.00
2019-06-10T05:06:58.235Z,4.47
2019-06-10T05:12:34.701Z,4.20
2019-06-10T05:17:27.996Z,4.07
2019-06-10T05:20:15.226Z,6.63
2019-06-10T05:25:42.788Z,6.67
2019-06-10T05:28:12.252Z,6.90
2019-06-10T05:30:42.610Z,7.27
2019-06-10T05:33:30.493Z,9.77
2019-06-10T05:35:59.692Z,4.20
2019-06-10T05:38:29.128Z,9.00
2019-06-10T05:40:58.300Z,11.23
2019-06-10T05:43:27.861Z,8.73
2019-06-10T05:48:52.523Z,5.63
2019-06-10T05:59:30.029Z,6.97
2019-06-10T06:05:29.986Z,7.37
2019-06-10T06:08:04.870Z,6.47
2019-06-10T06:13:32.715Z,5.90
2019-06-10T06:15:45.937Z,5.83
2019-06-10T06:21:22.403Z,5.67
2019-06-10T06:23:58.449Z,4.50
2019-06-10T06:26:45.728Z,5.07
2019-06-10T06:32:23.635Z,4.33
2019-06-10T06:34:52.683Z,3.40
2019-06-10T06:37:42.842Z,4.50
2019-06-10T06:40:13.237Z,5.20
2019-06-10T06:53:33.191Z,4.23
2019-06-10T06:58:43.853Z,5.97
2019-06-10T07:01:34.676Z,4.03
2019-06-10T07:04:02.596Z,7.17
2019-06-10T07:11:47.054Z,4.53
2019-06-10T07:14:16.945Z,6.77
2019-06-10T07:16:46.787Z,5.47
2019-06-10T07:19:16.565Z,5.43
2019-06-10T07:22:07.477Z,4.70
2019-06-10T07:24:37.918Z,6.07
2019-06-10T07:32:16.586Z,6.47
2019-06-10T07:34:47.004Z,6.43
2019-06-10T07:37:34.952Z,7.73
2019-06-10T07:40:07.418Z,5.03
2019-06-10T07:42:54.690Z,4.90
2019-06-10T07:45:47.590Z,6.30
2019-06-10T07:48:14.004Z,7.50
2019-06-10T07:50:44.247Z,7.63
2019-06-10T07:53:13.858Z,6.37
2019-06-10T07:55:46.533Z,5.00
2019-06-10T07:58:17.578Z,5.80
2019-06-10T08:03:36.932Z,7.03
2019-06-10T08:06:25.437Z,10.07
2019-06-10T08:09:15.016Z,7.33
2019-06-10T08:15:12.623Z,7.20
2019-06-10T08:17:43.022Z,6.00
2019-06-10T08:20:13.362Z,9.13
2019-06-10T08:23:03.055Z,8.93
2019-06-10T08:25:54.599Z,12.00
2019-06-10T08:28:22.962Z,8.97
2019-06-10T08:33:35.199Z,10.23
2019-06-10T08:41:32.329Z,8.33
2019-06-10T08:53:15.562Z,10.40
2019-06-10T08:54:57.251Z,8.97
2019-06-10T08:57:25.427Z,8.63
2019-06-10T08:59:54.069Z,11.43
2019-06-10T09:02:23.215Z,9.27
2019-06-10T09:07:50.900Z,10.97
2019-06-10T09:13:27.237Z,10.37
2019-06-10T09:16:11.005Z,10.77
2019-06-10T09:18:27.872Z,9.97
2019-06-10T09:21:17.946Z,9.20
2019-06-10T09:23:50.442Z,13.03
2019-06-10T09:26:17.152Z,8.20
2019-06-10T09:28:50.765Z,12.67
2019-06-10T09:31:15.666Z,8.97
2019-06-10T09:36:33.994Z,9.20
2019-06-10T09:39:04.006Z,10.07
2019-06-10T09:41:40.228Z,10.47
2019-06-10T09:44:03.299Z,7.47
2019-06-10T09:46:55.939Z,6.33
2019-06-10T09:49:33.848Z,8.80
2019-06-10T09:52:03.344Z,8.17
2019-06-10T09:54:33.542Z,9.67
2019-06-10T09:59:41.751Z,11.90
2019-06-10T10:02:12.468Z,7.60
2019-06-10T10:04:42.295Z,7.90
2019-06-10T10:07:22.940Z,10.07
2019-06-10T10:10:12.858Z,8.67
2019-06-10T10:12:44.053Z,8.97
2019-06-10T10:15:26.546Z,10.23
2019-06-10T10:17:44.475Z,10.63
2019-06-10T10:20:12.311Z,13.83
2019-06-10T10:22:43.792Z,8.93
2019-06-10T10:25:14.328Z,10.27
2019-06-10T10:27:45.548Z,7.50
2019-06-10T10:30:13.501Z,9.20
2019-06-10T10:32:44.295Z,7.80
2019-06-10T10:35:32.634Z,10.20
2019-06-10T10:40:35.765Z,7.87
2019-06-10T10:43:22.504Z,9.13
2019-06-10T10:45:34.116Z,7.27
2019-06-10T10:48:02.846Z,8.67
2019-06-10T10:50:33.955Z,10.70
2019-06-10T10:55:53.546Z,10.43
2019-06-10T10:58:22.944Z,11.13
2019-06-10T11:03:39.194Z,11.37
2019-06-10T11:06:23.187Z,9.00
2019-06-10T11:08:57.106Z,10.83
2019-06-10T11:11:45.727Z,9.47
2019-06-10T11:17:09.766Z,12.53
2019-06-10T11:19:38.224Z,8.47
2019-06-10T11:22:06.524Z,10.00
2019-06-10T11:24:40.788Z,10.85
2019-06-10T11:27:23.819Z,9.65
2019-06-10T11:29:56.472Z,9.73
2019-06-10T11:32:23.722Z,10.50
2019-06-10T11:34:56.518Z,8.95
2019-06-10T11:37:23.128Z,10.13
2019-06-10T11:39:52.316Z,9.58
2019-06-10T11:44:59.536Z,10.63
2019-06-10T11:47:45.166Z,9.03
2019-06-10T11:50:33.985Z,9.67
2019-06-10T11:53:04.261Z,9.18
2019-06-10T11:55:33.392Z,5.25
2019-06-10T11:58:23.399Z,7.50
2019-06-10T12:00:55.686Z,4.60
2019-06-10T12:06:09.619Z,6.72
2019-06-10T12:08:38.877Z,8.95
2019-06-10T12:11:07.860Z,6.05
2019-06-10T12:13:36.392Z,9.08
2019-06-10T12:17:12.287Z,6.92
2019-06-10T12:18:38.285Z,5.65
2019-06-10T12:21:06.723Z,8.93
2019-06-10T12:23:35.129Z,5.95
2019-06-10T12:28:59.359Z,8.15
2019-06-10T12:34:22.803Z,8.10
2019-06-10T12:37:15.800Z,5.87
2019-06-10T12:47:37.352Z,8.03
2019-06-10T12:55:48.055Z,6.65
2019-06-10T12:58:16.587Z,6.28
2019-06-10T13:03:39.406Z,5.78
2019-06-10T13:22:54.079Z,9.85
2019-06-10T13:25:24.812Z,6.22
2019-06-10T13:27:54.186Z,8.40
2019-06-10T13:30:22.689Z,9.60
2019-06-10T13:33:12.062Z,6.90
2019-06-10T13:35:41.750Z,5.22
2019-06-10T13:38:10.772Z,7.72
2019-06-10T13:40:39.137Z,8.10
2019-06-10T13:45:56.501Z,6.70
2019-06-10T13:48:26.047Z,7.60
2019-06-10T13:53:49.771Z,6.87
2019-06-10T13:56:39.569Z,8.33
2019-06-10T13:58:47.853Z,4.75
2019-06-10T14:01:22.046Z,4.17
2019-06-10T14:09:16.524Z,7.50
2019-06-10T14:14:23.334Z,6.33
2019-06-10T14:16:53.937Z,8.90
2019-06-10T14:19:23.181Z,5.35
2019-06-10T14:21:51.941Z,12.87
2019-06-10T14:24:22.798Z,6.17
2019-06-10T14:26:52.964Z,5.75
2019-06-10T14:29:23.063Z,5.37
2019-06-10T14:31:53.348Z,5.67
2019-06-10T14:34:22.483Z,5.20
2019-06-10T14:36:52.591Z,5.43
2019-06-10T14:39:22.174Z,4.67
2019-06-10T14:41:52.323Z,3.80
2019-06-10T14:44:23.612Z,4.63
2019-06-10T14:46:53.050Z,6.10
2019-06-10T14:49:22.624Z,6.12
2019-06-10T14:51:53.801Z,6.30
2019-06-10T14:54:22.897Z,5.22
2019-06-10T14:56:56.945Z,6.60
2019-06-10T14:59:27.709Z,5.97
2019-06-10T15:01:56.238Z,7.10
2019-06-10T15:04:25.052Z,5.50
2019-06-10T15:06:54.012Z,7.23
2019-06-10T15:09:22.795Z,6.50
2019-06-10T15:11:53.029Z,7.23
2019-06-10T15:14:24.081Z,5.83
2019-06-10T15:16:55.645Z,5.50
2019-06-10T15:19:33.393Z,6.03
2019-06-10T15:22:04.507Z,12.63
2019-06-10T15:24:36.480Z,5.97
2019-06-10T15:27:15.886Z,4.83
2019-06-10T15:29:39.643Z,5.37
2019-06-10T15:32:15.306Z,8.80
2019-06-10T15:34:38.489Z,6.27
2019-06-10T15:37:09.431Z,8.13
2019-06-10T15:39:37.802Z,6.17
2019-06-10T15:42:07.061Z,4.17
2019-06-10T15:44:52.548Z,3.77
2019-06-10T15:47:10.154Z,5.00
2019-06-10T15:49:39.365Z,5.35
2019-06-10T15:52:08.729Z,5.58
2019-06-10T15:54:42.685Z,5.87
2019-06-10T15:57:26.504Z,6.60
2019-06-10T15:59:42.801Z,5.67
2019-06-10T16:02:14.262Z,6.62
2019-06-10T16:04:43.222Z,4.08
2019-06-10T16:07:17.124Z,3.70
2019-06-10T16:09:45.344Z,5.90
2019-06-10T16:12:16.143Z,5.40
2019-06-10T16:14:43.947Z,6.12
2019-06-10T16:17:12.996Z,8.93
2019-06-10T16:19:43.166Z,9.03
2019-06-10T16:22:12.760Z,10.93
2019-06-10T16:24:42.436Z,7.35
2019-06-10T16:27:14.204Z,5.67
2019-06-10T16:29:46.003Z,7.87
2019-06-10T16:32:18.804Z,6.63
2019-06-10T16:34:47.722Z,9.97
2019-06-10T16:37:17.060Z,8.00
2019-06-10T16:39:45.559Z,6.87
2019-06-10T16:42:19.822Z,9.48
2019-06-10T16:44:50.093Z,6.07
2019-06-10T16:47:19.095Z,5.90
2019-06-10T16:49:49.466Z,6.87
2019-06-10T16:52:19.468Z,6.63
2019-06-10T16:54:47.945Z,5.57
2019-06-10T16:57:17.525Z,5.37
2019-06-10T16:59:46.421Z,5.20
2019-06-10T17:02:15.292Z,3.40
2019-06-10T17:04:47.295Z,4.00
2019-06-10T17:07:16.174Z,5.23
2019-06-10T17:09:44.797Z,3.93
2019-06-10T17:12:13.597Z,3.47
2019-06-10T17:14:42.960Z,8.13
2019-06-10T17:17:12.725Z,4.13
2019-06-10T17:19:41.919Z,5.20
2019-06-10T17:22:12.605Z,4.43
2019-06-10T17:24:42.245Z,3.97
2019-06-10T17:27:13.205Z,3.23
2019-06-10T17:29:45.261Z,4.17
2019-06-10T17:32:16.668Z,4.37
2019-06-10T17:34:46.574Z,2.93
2019-06-10T17:37:15.279Z,4.60
2019-06-10T17:39:43.858Z,4.80
2019-06-10T17:42:12.537Z,3.50
2019-06-10T17:44:43.777Z,3.60
2019-06-10T17:47:13.218Z,3.73
2019-06-10T17:49:42.036Z,3.43
2019-06-10T17:52:12.888Z,4.27
2019-06-10T17:54:41.416Z,3.57
2019-06-10T17:57:12.833Z,3.90
2019-06-10T17:59:41.055Z,4.80
2019-06-10T18:02:13.438Z,4.10
2019-06-10T18:04:42.392Z,3.90
2019-06-10T18:07:13.052Z,5.47
2019-06-10T18:09:49.891Z,3.30
2019-06-10T18:12:24.181Z,3.73
2019-06-10T18:14:55.999Z,4.10
2019-06-10T18:17:25.991Z,4.57
2019-06-10T18:19:55.250Z,4.03
2019-06-10T18:22:28.434Z,4.43
2019-06-10T18:25:02.896Z,4.87
2019-06-10T18:27:36.957Z,5.17
2019-06-10T18:30:13.302Z,5.13
2019-06-10T18:32:42.815Z,6.00
2019-06-10T18:35:11.276Z,4.77
2019-06-10T18:37:42.146Z,4.67
2019-06-10T18:40:14.625Z,4.50
2019-06-10T18:42:45.440Z,4.50
2019-06-10T18:45:15.810Z,4.13
2019-06-10T18:47:44.414Z,5.87
2019-06-10T18:50:13.532Z,5.20
2019-06-10T18:52:44.185Z,3.90
2019-06-10T18:55:13.081Z,4.17
2019-06-10T18:57:44.767Z,6.53
2019-06-10T19:00:15.295Z,4.00
2019-06-10T19:02:43.810Z,4.30
2019-06-10T19:05:13.727Z,5.97
2019-06-10T19:07:46.148Z,5.73
2019-06-10T19:10:16.202Z,6.80
2019-06-10T19:12:46.998Z,9.47
2019-06-10T19:15:16.565Z,6.60
2019-06-10T19:17:47.443Z,8.43
2019-06-10T19:20:23.437Z,5.30
2019-06-10T19:22:54.383Z,8.03
2019-06-10T19:25:25.874Z,6.53
2019-06-10T19:27:57.159Z,6.87
2019-06-10T19:30:27.161Z,6.63
2019-06-10T19:32:58.199Z,5.50
2019-06-10T19:35:32.256Z,5.63
2019-06-10T19:38:02.207Z,5.50
2019-06-10T19:40:42.894Z,5.73
2019-06-10T19:43:14.758Z,5.90
2019-06-10T19:45:44.371Z,9.43
2019-06-10T19:48:12.881Z,6.20
2019-06-10T19:50:50.195Z,5.37
2019-06-10T19:53:14.940Z,9.43
2019-06-10T19:55:44.462Z,6.70
2019-06-10T19:58:17.081Z,5.27
2019-06-10T20:00:51.021Z,4.53
2019-06-10T20:03:17.816Z,5.73
2019-06-10T20:05:47.409Z,5.10
2019-06-10T20:08:17.394Z,4.53
2019-06-10T20:10:48.136Z,6.93
2019-06-10T20:13:16.462Z,6.57
2019-06-10T20:15:47.052Z,5.10
2019-06-10T20:18:15.589Z,6.03
2019-06-10T20:20:47.026Z,4.90
2019-06-10T20:23:15.659Z,3.77
2019-06-10T20:25:47.211Z,4.60
2019-06-10T20:28:17.165Z,4.10
2019-06-10T20:30:49.154Z,3.77
2019-06-10T20:33:33.848Z,4.93
2019-06-10T20:36:03.321Z,4.80
2019-06-10T20:38:32.958Z,5.60
2019-06-10T20:41:02.678Z,6.57
2019-06-10T20:43:32.854Z,8.57
2019-06-10T20:46:02.797Z,9.83
2019-06-10T20:48:33.300Z,9.30
2019-06-10T20:51:03.029Z,8.03
2019-06-10T20:53:33.829Z,6.23
2019-06-10T20:56:03.734Z,7.07
2019-06-10T20:58:33.272Z,6.20
2019-06-10T21:01:04.735Z,6.63
2019-06-10T21:03:33.268Z,6.37
2019-06-10T21:06:09.278Z,6.47
2019-06-10T21:08:37.867Z,6.20
2019-06-10T21:11:06.822Z,5.53
2019-06-10T21:13:38.332Z,5.03
2019-06-10T21:16:12.500Z,4.67
2019-06-10T21:18:46.848Z,4.57
2019-06-10T21:21:13.620Z,3.50
2019-06-10T21:23:44.697Z,5.13
2019-06-10T21:26:13.004Z,4.53
2019-06-10T21:28:44.259Z,5.70
2019-06-10T21:31:11.717Z,5.33
2019-06-10T21:33:43.408Z,5.67
2019-06-10T21:36:12.305Z,8.00
2019-06-10T21:38:43.863Z,7.60
2019-06-10T21:41:12.341Z,5.63
2019-06-10T21:43:54.772Z,4.47
2019-06-10T21:46:18.578Z,7.10
2019-06-10T21:48:47.783Z,5.20
2019-06-10T21:51:17.765Z,3.97
2019-06-10T21:53:46.604Z,3.20
2019-06-10T21:56:15.569Z,2.93
2019-06-10T21:58:45.057Z,3.17
2019-06-10T22:01:16.845Z,3.40
2019-06-10T22:03:49.128Z,3.90
2019-06-10T22:06:13.783Z,3.77
2019-06-10T22:08:42.813Z,3.80
2019-06-10T22:11:13.857Z,4.90
2019-06-10T22:13:42.531Z,3.93
2019-06-10T22:16:11.307Z,3.57
2019-06-10T22:18:40.111Z,3.87
2019-06-10T22:21:09.601Z,4.73
2019-06-10T22:23:38.086Z,6.27
2019-06-10T22:26:06.928Z,6.17
2019-06-10T22:28:35.804Z,4.93
2019-06-10T22:31:16.061Z,4.37
2019-06-10T22:33:34.670Z,5.40
2019-06-10T22:36:03.154Z,5.57
2019-06-10T22:38:32.816Z,5.67
2019-06-10T22:41:03.174Z,6.00
2019-06-10T22:43:33.036Z,7.13
2019-06-10T22:46:03.762Z,11.00
2019-06-10T22:48:33.275Z,9.97
2019-06-10T22:51:01.987Z,8.63
2019-06-10T22:53:33.323Z,10.47
2019-06-10T22:56:02.930Z,10.97
2019-06-10T22:58:31.789Z,10.33
2019-06-10T23:01:00.874Z,11.03
2019-06-10T23:03:29.652Z,9.07
2019-06-10T23:05:58.551Z,7.93
2019-06-10T23:08:27.143Z,9.90
2019-06-10T23:10:58.535Z,9.83
2019-06-10T23:13:27.357Z,7.70
2019-06-10T23:16:02.050Z,8.27
2019-06-10T23:18:28.838Z,9.70
2019-06-10T23:21:00.684Z,7.93
2019-06-10T23:23:29.677Z,7.83
2019-06-10T23:26:02.983Z,7.93
2019-06-10T23:28:32.687Z,8.17
2019-06-10T23:31:02.445Z,7.30
2019-06-10T23:33:32.409Z,6.90
2019-06-10T23:36:03.967Z,11.77
2019-06-10T23:38:32.925Z,7.50
2019-06-10T23:41:03.754Z,7.40
2019-06-10T23:43:32.994Z,9.13
2019-06-10T23:46:04.320Z,6.50
2019-06-10T23:48:34.338Z,6.17
2019-06-10T23:51:04.918Z,6.87
2019-06-10T23:53:33.191Z,9.67
2019-06-10T23:56:05.057Z,5.83
2019-06-10T23:58:36.810Z,6.37
